sensor_id;sensor_type;location;lat;lon;timestamp;temperature;humidity
25128;DHT22;13107;51.304;6.866;2023-06-19T00:02:04;21.50;99.90
25128;DHT22;13107;51.304;6.866;2023-06-19T00:06:06;21.30;99.90
25128;DHT22;13107;51.304;6.866;2023-06-19T00:10:08;21.10;99.90
25128;DHT22;13107;51.304;6.866;2023-06-19T00:14:10;21.00;99.90
25128;DHT22;13107;51.304;6.866;2023-06-19T00:18:12;20.80;99.90
25128;DHT22;13107;51.304;6.866;2023-06-19T00:22:14;20.70;99.90
25128;DHT22;13107;51.304;6.866;2023-06-19T00:26:16;20.50;99.90
25128;DHT22;13107;51.304;6.866;2023-06-19T00:30:18;20.30;99.90
25128;DHT22;13107;51.304;6.866;2023-06-19T00:34:20;20.10;99.90
25128;DHT22;13107;51.304;6.866;2023-06-19T00:38:21;20.00;99.90
25128;DHT22;13107;51.304;6.866;2023-06-19T00:42:23;19.80;99.90
25128;DHT22;13107;51.304;6.866;2023-06-19T00:46:25;19.70;99.90
25128;DHT22;13107;51.304;6.866;2023-06-19T00:50:28;19.60;99.90
25128;DHT22;13107;51.304;6.866;2023-06-19T00:54:31;19.40;99.90
25128;DHT22;13107;51.304;6.866;2023-06-19T00:58:33;19.30;99.90
25128;DHT22;13107;51.304;6.866;2023-06-19T01:02:37;19.20;99.90
25128;DHT22;13107;51.304;6.866;2023-06-19T01:07:02;19.10;99.90
25128;DHT22;13107;51.304;6.866;2023-06-19T01:11:13;19.00;99.90
25128;DHT22;13107;51.304;6.866;2023-06-19T01:15:28;18.90;99.90
25128;DHT22;13107;51.304;6.866;2023-06-19T01:19:30;18.80;99.90
25128;DHT22;13107;51.304;6.866;2023-06-19T01:23:32;18.70;99.90
25128;DHT22;13107;51.304;6.866;2023-06-19T01:27:34;18.60;99.90
25128;DHT22;13107;51.304;6.866;2023-06-19T01:31:55;18.50;99.90
25128;DHT22;13107;51.304;6.866;2023-06-19T01:36:01;18.40;99.90
25128;DHT22;13107;51.304;6.866;2023-06-19T01:40:05;18.30;99.90
25128;DHT22;13107;51.304;6.866;2023-06-19T01:44:11;18.20;99.90
25128;DHT22;13107;51.304;6.866;2023-06-19T01:48:14;18.00;99.90
25128;DHT22;13107;51.304;6.866;2023-06-19T01:52:16;17.90;99.90
25128;DHT22;13107;51.304;6.866;2023-06-19T01:56:17;17.80;99.90
25128;DHT22;13107;51.304;6.866;2023-06-19T02:00:19;17.70;99.90
25128;DHT22;13107;51.304;6.866;2023-06-19T02:04:21;17.60;99.90
25128;DHT22;13107;51.304;6.866;2023-06-19T02:08:23;17.60;99.90
25128;DHT22;13107;51.304;6.866;2023-06-19T02:12:24;17.50;99.90
25128;DHT22;13107;51.304;6.866;2023-06-19T02:16:26;17.50;99.90
25128;DHT22;13107;51.304;6.866;2023-06-19T02:20:28;17.40;99.90
25128;DHT22;13107;51.304;6.866;2023-06-19T02:24:29;17.40;99.90
25128;DHT22;13107;51.304;6.866;2023-06-19T02:28:31;17.40;99.90
25128;DHT22;13107;51.304;6.866;2023-06-19T02:32:33;17.50;99.90
25128;DHT22;13107;51.304;6.866;2023-06-19T02:36:35;17.60;99.90
25128;DHT22;13107;51.304;6.866;2023-06-19T02:40:37;17.70;99.90
25128;DHT22;13107;51.304;6.866;2023-06-19T02:44:39;17.90;99.90
25128;DHT22;13107;51.304;6.866;2023-06-19T02:48:41;18.10;99.90
25128;DHT22;13107;51.304;6.866;2023-06-19T02:52:42;18.80;99.90
25128;DHT22;13107;51.304;6.866;2023-06-19T02:56:44;19.20;99.90
25128;DHT22;13107;51.304;6.866;2023-06-19T03:00:46;19.70;99.90
25128;DHT22;13107;51.304;6.866;2023-06-19T03:04:48;20.00;99.90
25128;DHT22;13107;51.304;6.866;2023-06-19T03:08:50;20.20;99.90
25128;DHT22;13107;51.304;6.866;2023-06-19T03:12:52;20.40;99.90
25128;DHT22;13107;51.304;6.866;2023-06-19T03:16:54;20.50;99.90
25128;DHT22;13107;51.304;6.866;2023-06-19T03:20:55;20.40;99.90
25128;DHT22;13107;51.304;6.866;2023-06-19T03:24:58;20.50;99.90
25128;DHT22;13107;51.304;6.866;2023-06-19T03:28:59;20.60;99.90
25128;DHT22;13107;51.304;6.866;2023-06-19T03:33:01;20.60;99.90
25128;DHT22;13107;51.304;6.866;2023-06-19T03:37:03;20.60;99.90
25128;DHT22;13107;51.304;6.866;2023-06-19T03:41:05;20.50;99.90
25128;DHT22;13107;51.304;6.866;2023-06-19T03:45:07;20.40;99.90
25128;DHT22;13107;51.304;6.866;2023-06-19T03:49:09;20.50;99.90
25128;DHT22;13107;51.304;6.866;2023-06-19T03:53:11;20.50;99.90
25128;DHT22;13107;51.304;6.866;2023-06-19T03:57:13;20.40;99.90
25128;DHT22;13107;51.304;6.866;2023-06-19T04:01:14;20.50;99.90
25128;DHT22;13107;51.304;6.866;2023-06-19T04:05:16;20.50;99.90
25128;DHT22;13107;51.304;6.866;2023-06-19T04:09:18;20.40;99.90
25128;DHT22;13107;51.304;6.866;2023-06-19T04:13:20;20.40;99.90
25128;DHT22;13107;51.304;6.866;2023-06-19T04:17:22;20.30;99.90
25128;DHT22;13107;51.304;6.866;2023-06-19T04:21:23;20.20;99.90
25128;DHT22;13107;51.304;6.866;2023-06-19T04:25:26;20.20;99.90
25128;DHT22;13107;51.304;6.866;2023-06-19T04:29:28;20.30;99.90
25128;DHT22;13107;51.304;6.866;2023-06-19T04:33:33;20.10;99.90
25128;DHT22;13107;51.304;6.866;2023-06-19T04:37:35;20.10;99.90
25128;DHT22;13107;51.304;6.866;2023-06-19T04:41:37;20.10;99.90
25128;DHT22;13107;51.304;6.866;2023-06-19T04:45:40;20.10;99.90
25128;DHT22;13107;51.304;6.866;2023-06-19T04:49:42;20.20;99.90
25128;DHT22;13107;51.304;6.866;2023-06-19T04:53:56;20.10;99.90
25128;DHT22;13107;51.304;6.866;2023-06-19T04:57:58;20.10;99.90
25128;DHT22;13107;51.304;6.866;2023-06-19T05:02:00;20.00;99.90
25128;DHT22;13107;51.304;6.866;2023-06-19T05:06:02;20.00;99.90
25128;DHT22;13107;51.304;6.866;2023-06-19T05:10:04;19.90;99.90
25128;DHT22;13107;51.304;6.866;2023-06-19T05:14:06;19.90;99.90
25128;DHT22;13107;51.304;6.866;2023-06-19T05:18:07;19.90;99.90
25128;DHT22;13107;51.304;6.866;2023-06-19T05:22:09;20.00;99.90
25128;DHT22;13107;51.304;6.866;2023-06-19T05:26:11;20.10;99.90
25128;DHT22;13107;51.304;6.866;2023-06-19T05:30:13;20.00;99.90
25128;DHT22;13107;51.304;6.866;2023-06-19T05:34:14;20.10;99.90
25128;DHT22;13107;51.304;6.866;2023-06-19T05:38:16;20.10;99.90
25128;DHT22;13107;51.304;6.866;2023-06-19T05:42:18;20.10;99.90
25128;DHT22;13107;51.304;6.866;2023-06-19T05:46:20;20.30;99.90
25128;DHT22;13107;51.304;6.866;2023-06-19T05:50:22;20.30;99.90
25128;DHT22;13107;51.304;6.866;2023-06-19T05:54:24;20.40;99.90
25128;DHT22;13107;51.304;6.866;2023-06-19T05:58:26;20.50;99.90
25128;DHT22;13107;51.304;6.866;2023-06-19T06:02:28;20.60;99.90
25128;DHT22;13107;51.304;6.866;2023-06-19T06:06:30;20.70;99.90
25128;DHT22;13107;51.304;6.866;2023-06-19T06:10:33;20.70;99.90
25128;DHT22;13107;51.304;6.866;2023-06-19T06:14:35;20.70;99.90
25128;DHT22;13107;51.304;6.866;2023-06-19T06:18:36;20.70;99.90
25128;DHT22;13107;51.304;6.866;2023-06-19T06:22:42;20.70;99.90
25128;DHT22;13107;51.304;6.866;2023-06-19T06:26:44;20.80;99.90
25128;DHT22;13107;51.304;6.866;2023-06-19T06:30:46;20.80;99.90
25128;DHT22;13107;51.304;6.866;2023-06-19T06:34:48;20.90;99.90
25128;DHT22;13107;51.304;6.866;2023-06-19T06:38:50;21.00;99.90
25128;DHT22;13107;51.304;6.866;2023-06-19T06:42:52;21.10;99.90
25128;DHT22;13107;51.304;6.866;2023-06-19T06:46:55;21.20;99.90
25128;DHT22;13107;51.304;6.866;2023-06-19T06:50:57;21.10;99.90
25128;DHT22;13107;51.304;6.866;2023-06-19T06:55:03;21.10;99.90
25128;DHT22;13107;51.304;6.866;2023-06-19T06:59:05;21.10;99.90
25128;DHT22;13107;51.304;6.866;2023-06-19T07:03:07;21.10;99.90
25128;DHT22;13107;51.304;6.866;2023-06-19T07:07:09;21.00;99.90
25128;DHT22;13107;51.304;6.866;2023-06-19T07:11:11;20.90;99.90
25128;DHT22;13107;51.304;6.866;2023-06-19T07:15:13;20.90;99.90
25128;DHT22;13107;51.304;6.866;2023-06-19T07:19:15;20.80;99.90
25128;DHT22;13107;51.304;6.866;2023-06-19T07:23:17;20.70;99.90
25128;DHT22;13107;51.304;6.866;2023-06-19T07:27:19;20.70;99.90
25128;DHT22;13107;51.304;6.866;2023-06-19T07:31:20;20.80;99.90
25128;DHT22;13107;51.304;6.866;2023-06-19T07:35:22;21.00;99.90
25128;DHT22;13107;51.304;6.866;2023-06-19T07:39:24;21.20;99.90
25128;DHT22;13107;51.304;6.866;2023-06-19T07:43:26;21.30;99.90
25128;DHT22;13107;51.304;6.866;2023-06-19T07:47:27;21.40;99.90
25128;DHT22;13107;51.304;6.866;2023-06-19T07:51:29;21.40;99.90
25128;DHT22;13107;51.304;6.866;2023-06-19T07:55:32;21.10;99.90
25128;DHT22;13107;51.304;6.866;2023-06-19T07:59:34;20.80;99.90
25128;DHT22;13107;51.304;6.866;2023-06-19T08:03:36;20.50;99.90
25128;DHT22;13107;51.304;6.866;2023-06-19T08:07:38;20.50;99.90
25128;DHT22;13107;51.304;6.866;2023-06-19T08:11:40;20.60;99.90
25128;DHT22;13107;51.304;6.866;2023-06-19T08:15:41;20.80;99.90
25128;DHT22;13107;51.304;6.866;2023-06-19T08:19:43;21.20;99.90
25128;DHT22;13107;51.304;6.866;2023-06-19T08:23:45;21.50;99.90
25128;DHT22;13107;51.304;6.866;2023-06-19T08:27:47;21.80;99.90
25128;DHT22;13107;51.304;6.866;2023-06-19T08:31:49;21.90;99.90
25128;DHT22;13107;51.304;6.866;2023-06-19T08:35:50;22.10;99.90
25128;DHT22;13107;51.304;6.866;2023-06-19T08:39:52;22.40;99.90
25128;DHT22;13107;51.304;6.866;2023-06-19T08:43:54;22.60;99.90
25128;DHT22;13107;51.304;6.866;2023-06-19T08:48:00;23.00;99.90
25128;DHT22;13107;51.304;6.866;2023-06-19T08:52:05;23.10;99.90
25128;DHT22;13107;51.304;6.866;2023-06-19T08:56:07;23.00;99.90
25128;DHT22;13107;51.304;6.866;2023-06-19T09:00:09;22.90;99.90
25128;DHT22;13107;51.304;6.866;2023-06-19T09:04:13;22.70;99.90
25128;DHT22;13107;51.304;6.866;2023-06-19T09:08:15;23.10;99.90
25128;DHT22;13107;51.304;6.866;2023-06-19T09:12:17;23.50;99.90
25128;DHT22;13107;51.304;6.866;2023-06-19T09:16:19;24.30;99.90
25128;DHT22;13107;51.304;6.866;2023-06-19T09:20:27;24.70;99.90
25128;DHT22;13107;51.304;6.866;2023-06-19T09:24:40;25.00;99.90
25128;DHT22;13107;51.304;6.866;2023-06-19T09:28:51;25.10;99.90
25128;DHT22;13107;51.304;6.866;2023-06-19T09:32:53;25.40;99.90
25128;DHT22;13107;51.304;6.866;2023-06-19T09:36:55;25.40;99.90
25128;DHT22;13107;51.304;6.866;2023-06-19T09:40:59;25.30;99.90
25128;DHT22;13107;51.304;6.866;2023-06-19T09:45:06;25.20;99.90
25128;DHT22;13107;51.304;6.866;2023-06-19T09:49:08;25.50;99.90
25128;DHT22;13107;51.304;6.866;2023-06-19T09:53:12;26.00;99.90
25128;DHT22;13107;51.304;6.866;2023-06-19T09:57:13;26.50;99.90
25128;DHT22;13107;51.304;6.866;2023-06-19T10:01:17;26.70;99.90
25128;DHT22;13107;51.304;6.866;2023-06-19T10:05:32;26.10;99.90
25128;DHT22;13107;51.304;6.866;2023-06-19T10:09:34;26.10;99.90
25128;DHT22;13107;51.304;6.866;2023-06-19T10:13:38;26.00;99.90
25128;DHT22;13107;51.304;6.866;2023-06-19T10:22:03;26.70;99.90
25128;DHT22;13107;51.304;6.866;2023-06-19T10:26:06;26.00;99.90
25128;DHT22;13107;51.304;6.866;2023-06-19T10:30:16;26.00;99.90
25128;DHT22;13107;51.304;6.866;2023-06-19T10:34:19;26.10;99.90
25128;DHT22;13107;51.304;6.866;2023-06-19T10:38:21;26.20;99.90
25128;DHT22;13107;51.304;6.866;2023-06-19T10:42:23;26.60;99.90
25128;DHT22;13107;51.304;6.866;2023-06-19T10:46:29;26.60;99.90
25128;DHT22;13107;51.304;6.866;2023-06-19T10:50:37;27.30;99.90
25128;DHT22;13107;51.304;6.866;2023-06-19T10:54:39;27.30;99.90
25128;DHT22;13107;51.304;6.866;2023-06-19T10:58:41;27.70;99.90
25128;DHT22;13107;51.304;6.866;2023-06-19T11:02:43;27.70;99.90
25128;DHT22;13107;51.304;6.866;2023-06-19T11:06:45;27.30;99.90
25128;DHT22;13107;51.304;6.866;2023-06-19T11:10:49;27.50;99.90
25128;DHT22;13107;51.304;6.866;2023-06-19T11:14:51;27.60;99.90
25128;DHT22;13107;51.304;6.866;2023-06-19T11:19:02;27.80;98.30
25128;DHT22;13107;51.304;6.866;2023-06-19T11:23:04;27.60;98.80
25128;DHT22;13107;51.304;6.866;2023-06-19T11:27:06;27.20;99.50
25128;DHT22;13107;51.304;6.866;2023-06-19T11:31:17;27.10;99.90
25128;DHT22;13107;51.304;6.866;2023-06-19T11:35:32;27.50;99.90
25128;DHT22;13107;51.304;6.866;2023-06-19T11:39:35;27.40;99.00
25128;DHT22;13107;51.304;6.866;2023-06-19T11:43:39;27.50;98.50
25128;DHT22;13107;51.304;6.866;2023-06-19T11:47:42;28.00;98.50
25128;DHT22;13107;51.304;6.866;2023-06-19T11:51:44;28.70;96.90
25128;DHT22;13107;51.304;6.866;2023-06-19T11:55:46;28.40;96.40
25128;DHT22;13107;51.304;6.866;2023-06-19T11:59:48;28.80;96.60
25128;DHT22;13107;51.304;6.866;2023-06-19T12:03:50;28.70;95.00
25128;DHT22;13107;51.304;6.866;2023-06-19T12:07:52;28.90;93.60
25128;DHT22;13107;51.304;6.866;2023-06-19T12:11:54;28.80;93.10
25128;DHT22;13107;51.304;6.866;2023-06-19T12:15:55;29.10;92.70
25128;DHT22;13107;51.304;6.866;2023-06-19T12:19:57;29.50;91.90
25128;DHT22;13107;51.304;6.866;2023-06-19T12:23:59;29.80;90.70
25128;DHT22;13107;51.304;6.866;2023-06-19T12:28:01;30.40;86.70
25128;DHT22;13107;51.304;6.866;2023-06-19T12:32:03;30.00;87.80
25128;DHT22;13107;51.304;6.866;2023-06-19T12:36:05;30.00;87.60
25128;DHT22;13107;51.304;6.866;2023-06-19T12:40:08;29.50;90.10
25128;DHT22;13107;51.304;6.866;2023-06-19T12:44:12;29.10;86.70
25128;DHT22;13107;51.304;6.866;2023-06-19T12:48:14;28.60;89.00
25128;DHT22;13107;51.304;6.866;2023-06-19T12:52:15;28.30;90.00
25128;DHT22;13107;51.304;6.866;2023-06-19T12:56:17;28.10;90.60
25128;DHT22;13107;51.304;6.866;2023-06-19T13:00:20;28.10;90.90
25128;DHT22;13107;51.304;6.866;2023-06-19T13:04:22;27.90;90.80
25128;DHT22;13107;51.304;6.866;2023-06-19T13:08:24;28.40;91.70
25128;DHT22;13107;51.304;6.866;2023-06-19T13:12:26;28.90;87.30
25128;DHT22;13107;51.304;6.866;2023-06-19T13:16:28;29.50;90.10
25128;DHT22;13107;51.304;6.866;2023-06-19T13:20:46;30.10;86.00
25128;DHT22;13107;51.304;6.866;2023-06-19T13:24:49;30.10;85.30
25128;DHT22;13107;51.304;6.866;2023-06-19T13:28:51;30.30;85.00
25128;DHT22;13107;51.304;6.866;2023-06-19T13:32:53;30.10;81.20
25128;DHT22;13107;51.304;6.866;2023-06-19T13:36:55;30.10;84.50
25128;DHT22;13107;51.304;6.866;2023-06-19T13:40:56;30.20;81.80
25128;DHT22;13107;51.304;6.866;2023-06-19T13:44:58;30.40;81.50
25128;DHT22;13107;51.304;6.866;2023-06-19T13:49:00;30.20;79.60
25128;DHT22;13107;51.304;6.866;2023-06-19T13:53:02;30.20;78.30
25128;DHT22;13107;51.304;6.866;2023-06-19T13:57:04;30.00;78.80
25128;DHT22;13107;51.304;6.866;2023-06-19T14:01:06;30.00;79.60
25128;DHT22;13107;51.304;6.866;2023-06-19T14:05:08;29.70;77.60
25128;DHT22;13107;51.304;6.866;2023-06-19T14:09:10;29.80;75.00
25128;DHT22;13107;51.304;6.866;2023-06-19T14:13:12;30.20;76.80
25128;DHT22;13107;51.304;6.866;2023-06-19T14:17:15;30.50;71.90
25128;DHT22;13107;51.304;6.866;2023-06-19T14:21:17;30.50;73.30
25128;DHT22;13107;51.304;6.866;2023-06-19T14:25:19;31.10;67.80
25128;DHT22;13107;51.304;6.866;2023-06-19T14:29:21;31.60;67.40
25128;DHT22;13107;51.304;6.866;2023-06-19T14:33:22;31.40;68.50
25128;DHT22;13107;51.304;6.866;2023-06-19T14:37:24;31.60;66.50
25128;DHT22;13107;51.304;6.866;2023-06-19T14:41:26;31.80;66.10
25128;DHT22;13107;51.304;6.866;2023-06-19T14:45:27;31.70;65.60
25128;DHT22;13107;51.304;6.866;2023-06-19T14:49:29;32.00;66.30
25128;DHT22;13107;51.304;6.866;2023-06-19T14:53:31;32.10;64.10
25128;DHT22;13107;51.304;6.866;2023-06-19T14:57:33;32.60;62.10
25128;DHT22;13107;51.304;6.866;2023-06-19T15:01:35;32.60;61.90
25128;DHT22;13107;51.304;6.866;2023-06-19T15:05:36;32.80;62.00
25128;DHT22;13107;51.304;6.866;2023-06-19T15:09:38;32.20;63.00
25128;DHT22;13107;51.304;6.866;2023-06-19T15:13:40;32.10;61.50
25128;DHT22;13107;51.304;6.866;2023-06-19T15:17:41;31.50;60.90
25128;DHT22;13107;51.304;6.866;2023-06-19T15:21:43;31.50;63.80
25128;DHT22;13107;51.304;6.866;2023-06-19T15:25:45;31.10;63.60
25128;DHT22;13107;51.304;6.866;2023-06-19T15:29:47;30.50;65.90
25128;DHT22;13107;51.304;6.866;2023-06-19T15:33:49;29.90;66.70
25128;DHT22;13107;51.304;6.866;2023-06-19T15:37:51;29.40;67.90
25128;DHT22;13107;51.304;6.866;2023-06-19T15:41:53;29.20;71.30
25128;DHT22;13107;51.304;6.866;2023-06-19T15:45:55;29.00;68.10
25128;DHT22;13107;51.304;6.866;2023-06-19T15:49:57;28.80;68.60
25128;DHT22;13107;51.304;6.866;2023-06-19T15:53:59;28.70;69.40
25128;DHT22;13107;51.304;6.866;2023-06-19T15:58:01;28.60;69.10
25128;DHT22;13107;51.304;6.866;2023-06-19T16:02:03;28.20;68.90
25128;DHT22;13107;51.304;6.866;2023-06-19T16:06:05;28.00;71.80
25128;DHT22;13107;51.304;6.866;2023-06-19T16:10:09;28.00;71.10
25128;DHT22;13107;51.304;6.866;2023-06-19T16:14:11;28.10;69.70
25128;DHT22;13107;51.304;6.866;2023-06-19T16:18:13;28.00;70.70
25128;DHT22;13107;51.304;6.866;2023-06-19T16:22:14;28.00;71.80
25128;DHT22;13107;51.304;6.866;2023-06-19T16:26:16;27.80;72.40
25128;DHT22;13107;51.304;6.866;2023-06-19T16:30:18;27.90;72.10
25128;DHT22;13107;51.304;6.866;2023-06-19T16:34:20;27.90;71.90
25128;DHT22;13107;51.304;6.866;2023-06-19T16:38:22;27.80;69.80
25128;DHT22;13107;51.304;6.866;2023-06-19T16:42:24;27.70;71.20
25128;DHT22;13107;51.304;6.866;2023-06-19T16:46:27;27.60;72.70
25128;DHT22;13107;51.304;6.866;2023-06-19T16:50:29;27.70;71.20
25128;DHT22;13107;51.304;6.866;2023-06-19T16:54:30;27.70;71.40
25128;DHT22;13107;51.304;6.866;2023-06-19T16:58:32;27.60;71.60
25128;DHT22;13107;51.304;6.866;2023-06-19T17:02:34;27.50;70.40
25128;DHT22;13107;51.304;6.866;2023-06-19T17:06:36;27.40;69.20
25128;DHT22;13107;51.304;6.866;2023-06-19T17:10:38;27.30;71.80
25128;DHT22;13107;51.304;6.866;2023-06-19T17:14:41;27.20;71.00
25128;DHT22;13107;51.304;6.866;2023-06-19T17:18:43;27.20;71.10
25128;DHT22;13107;51.304;6.866;2023-06-19T17:22:45;27.20;72.30
25128;DHT22;13107;51.304;6.866;2023-06-19T17:26:47;27.00;70.10
25128;DHT22;13107;51.304;6.866;2023-06-19T17:30:49;26.70;71.20
25128;DHT22;13107;51.304;6.866;2023-06-19T17:34:51;26.90;75.10
25128;DHT22;13107;51.304;6.866;2023-06-19T17:38:53;26.80;74.30
25128;DHT22;13107;51.304;6.866;2023-06-19T17:42:54;26.70;72.90
25128;DHT22;13107;51.304;6.866;2023-06-19T17:46:56;26.50;73.20
25128;DHT22;13107;51.304;6.866;2023-06-19T17:50:59;26.40;74.80
25128;DHT22;13107;51.304;6.866;2023-06-19T17:55:01;26.20;76.90
25128;DHT22;13107;51.304;6.866;2023-06-19T17:59:03;26.20;77.40
25128;DHT22;13107;51.304;6.866;2023-06-19T18:03:05;26.20;78.90
25128;DHT22;13107;51.304;6.866;2023-06-19T18:07:09;26.10;79.70
25128;DHT22;13107;51.304;6.866;2023-06-19T18:11:12;26.00;81.20
25128;DHT22;13107;51.304;6.866;2023-06-19T18:15:14;25.60;82.80
25128;DHT22;13107;51.304;6.866;2023-06-19T18:19:16;25.60;87.60
25128;DHT22;13107;51.304;6.866;2023-06-19T18:23:18;25.30;89.50
25128;DHT22;13107;51.304;6.866;2023-06-19T18:27:21;25.10;91.00
25128;DHT22;13107;51.304;6.866;2023-06-19T18:31:22;24.80;92.70
25128;DHT22;13107;51.304;6.866;2023-06-19T18:35:24;24.70;94.90
25128;DHT22;13107;51.304;6.866;2023-06-19T18:39:26;24.70;96.00
25128;DHT22;13107;51.304;6.866;2023-06-19T18:43:28;24.40;98.50
25128;DHT22;13107;51.304;6.866;2023-06-19T18:47:29;24.10;99.90
25128;DHT22;13107;51.304;6.866;2023-06-19T18:51:31;23.90;99.90
25128;DHT22;13107;51.304;6.866;2023-06-19T18:55:33;23.80;99.90
25128;DHT22;13107;51.304;6.866;2023-06-19T18:59:38;23.60;99.90
25128;DHT22;13107;51.304;6.866;2023-06-19T19:03:40;23.40;99.90
25128;DHT22;13107;51.304;6.866;2023-06-19T19:07:42;23.30;99.90
25128;DHT22;13107;51.304;6.866;2023-06-19T19:11:44;23.10;99.90
25128;DHT22;13107;51.304;6.866;2023-06-19T19:15:48;22.80;99.90
25128;DHT22;13107;51.304;6.866;2023-06-19T19:19:50;22.60;99.90
25128;DHT22;13107;51.304;6.866;2023-06-19T19:23:52;22.30;99.90
25128;DHT22;13107;51.304;6.866;2023-06-19T19:27:53;22.20;99.90
25128;DHT22;13107;51.304;6.866;2023-06-19T19:31:55;22.10;99.90
25128;DHT22;13107;51.304;6.866;2023-06-19T19:35:57;21.90;99.90
25128;DHT22;13107;51.304;6.866;2023-06-19T19:39:59;21.70;99.90
25128;DHT22;13107;51.304;6.866;2023-06-19T19:44:01;21.40;99.90
25128;DHT22;13107;51.304;6.866;2023-06-19T19:48:02;21.30;99.90
25128;DHT22;13107;51.304;6.866;2023-06-19T19:52:04;21.10;99.90
25128;DHT22;13107;51.304;6.866;2023-06-19T19:56:07;20.90;99.90
25128;DHT22;13107;51.304;6.866;2023-06-19T20:00:09;20.80;99.90
25128;DHT22;13107;51.304;6.866;2023-06-19T20:04:12;20.70;99.90
25128;DHT22;13107;51.304;6.866;2023-06-19T20:08:17;20.60;99.90
25128;DHT22;13107;51.304;6.866;2023-06-19T20:12:19;20.50;99.90
25128;DHT22;13107;51.304;6.866;2023-06-19T20:16:23;20.50;99.90
25128;DHT22;13107;51.304;6.866;2023-06-19T20:20:24;20.30;99.90
25128;DHT22;13107;51.304;6.866;2023-06-19T20:24:27;20.20;99.90
25128;DHT22;13107;51.304;6.866;2023-06-19T20:28:28;20.10;99.90
25128;DHT22;13107;51.304;6.866;2023-06-19T20:32:30;20.00;99.90
25128;DHT22;13107;51.304;6.866;2023-06-19T20:36:32;19.90;99.90
25128;DHT22;13107;51.304;6.866;2023-06-19T20:40:34;19.80;99.90
25128;DHT22;13107;51.304;6.866;2023-06-19T20:44:36;19.80;99.90
25128;DHT22;13107;51.304;6.866;2023-06-19T20:48:38;19.70;99.90
25128;DHT22;13107;51.304;6.866;2023-06-19T20:52:40;19.70;99.90
25128;DHT22;13107;51.304;6.866;2023-06-19T20:56:42;19.60;99.90
25128;DHT22;13107;51.304;6.866;2023-06-19T21:00:44;19.60;99.90
25128;DHT22;13107;51.304;6.866;2023-06-19T21:04:46;19.50;99.90
25128;DHT22;13107;51.304;6.866;2023-06-19T21:08:49;19.50;99.90
25128;DHT22;13107;51.304;6.866;2023-06-19T21:12:51;19.50;99.90
25128;DHT22;13107;51.304;6.866;2023-06-19T21:16:52;19.40;99.90
25128;DHT22;13107;51.304;6.866;2023-06-19T21:20:54;19.40;99.90
25128;DHT22;13107;51.304;6.866;2023-06-19T21:24:57;19.30;99.90
25128;DHT22;13107;51.304;6.866;2023-06-19T21:28:59;19.30;99.90
25128;DHT22;13107;51.304;6.866;2023-06-19T21:33:00;19.20;99.90
25128;DHT22;13107;51.304;6.866;2023-06-19T21:37:02;19.20;99.90
25128;DHT22;13107;51.304;6.866;2023-06-19T21:41:04;19.20;99.90
25128;DHT22;13107;51.304;6.866;2023-06-19T21:45:06;19.30;99.90
25128;DHT22;13107;51.304;6.866;2023-06-19T21:49:08;19.30;99.90
25128;DHT22;13107;51.304;6.866;2023-06-19T21:53:09;19.20;99.90
25128;DHT22;13107;51.304;6.866;2023-06-19T21:57:11;19.20;99.90
25128;DHT22;13107;51.304;6.866;2023-06-19T22:01:13;19.10;99.90
25128;DHT22;13107;51.304;6.866;2023-06-19T22:05:14;19.10;99.90
25128;DHT22;13107;51.304;6.866;2023-06-19T22:09:16;19.20;99.90
25128;DHT22;13107;51.304;6.866;2023-06-19T22:13:18;19.10;99.90
25128;DHT22;13107;51.304;6.866;2023-06-19T22:17:20;19.10;99.90
25128;DHT22;13107;51.304;6.866;2023-06-19T22:21:21;19.00;99.90
25128;DHT22;13107;51.304;6.866;2023-06-19T22:25:23;19.00;99.90
25128;DHT22;13107;51.304;6.866;2023-06-19T22:29:25;19.00;99.90
25128;DHT22;13107;51.304;6.866;2023-06-19T22:33:27;19.00;99.90
25128;DHT22;13107;51.304;6.866;2023-06-19T22:37:28;18.90;99.90
25128;DHT22;13107;51.304;6.866;2023-06-19T22:41:30;18.90;99.90
25128;DHT22;13107;51.304;6.866;2023-06-19T22:45:32;18.90;99.90
25128;DHT22;13107;51.304;6.866;2023-06-19T22:49:34;18.90;99.90
25128;DHT22;13107;51.304;6.866;2023-06-19T22:53:35;18.90;99.90
25128;DHT22;13107;51.304;6.866;2023-06-19T22:57:39;19.00;99.90
25128;DHT22;13107;51.304;6.866;2023-06-19T23:01:40;19.00;99.90
25128;DHT22;13107;51.304;6.866;2023-06-19T23:05:42;19.00;99.90
25128;DHT22;13107;51.304;6.866;2023-06-19T23:09:44;19.00;99.90
25128;DHT22;13107;51.304;6.866;2023-06-19T23:13:46;19.00;99.90
25128;DHT22;13107;51.304;6.866;2023-06-19T23:17:48;19.10;99.90
25128;DHT22;13107;51.304;6.866;2023-06-19T23:21:54;19.10;99.90
25128;DHT22;13107;51.304;6.866;2023-06-19T23:25:57;19.20;99.90
25128;DHT22;13107;51.304;6.866;2023-06-19T23:30:02;19.20;99.90
25128;DHT22;13107;51.304;6.866;2023-06-19T23:34:05;19.30;99.90
25128;DHT22;13107;51.304;6.866;2023-06-19T23:38:06;19.20;99.90
25128;DHT22;13107;51.304;6.866;2023-06-19T23:42:08;19.20;99.90
25128;DHT22;13107;51.304;6.866;2023-06-19T23:46:10;19.30;99.90
25128;DHT22;13107;51.304;6.866;2023-06-19T23:50:12;19.30;99.90
25128;DHT22;13107;51.304;6.866;2023-06-19T23:54:14;19.40;99.90
25128;DHT22;13107;51.304;6.866;2023-06-19T23:58:15;19.60;99.90
